Time;durP1;ratioP1;P1;durP2;ratioP2;P2;SDS_P1;SDS_P2;PMS_P1;PMS_P2;Temp;Humidity;BMP_temperature;BMP_pressure;BME280_temperature;BME280_humidity;BME280_pressure;Samples;Min_cycle;Max_cycle;Signal;HPM_P1;HPM_P2
2023/08/28 00:00:47;;;;;;;;;;;;;;;;;;4899321;28;111800;-80
2023/08/28 00:03:13;;;;;;;;;;;;;;;;;;4899528;28;121766;-81
2023/08/28 00:05:40;;;;;;;;;;;;;;;;;;4919356;28;92383;-81
2023/08/28 00:08:07;;;;;;;;;;;;;;;;;;4918080;28;100382;-81
2023/08/28 00:10:35;;;;;;;;;;;;;;;;;;4916233;28;119716;-80
2023/08/28 00:13:01;;;;;;;;;;;;;;;;;;4901590;28;124154;-81
2023/08/28 00:15:28;;;;;;;;;;;;;;;;;;4901549;28;120204;-80
2023/08/28 00:17:54;;;;;;;;;;;;;;;;;;4895630;28;123108;-80
2023/08/28 00:20:21;;;;;;;;;;;;;;;;;;4887091;28;122848;-79
2023/08/28 00:22:47;;;;;;;;;;;;;;;;;;4896827;28;124679;-79
2023/08/28 00:25:15;;;;;;;;;;;;;;;;;;4916821;28;122715;-80
2023/08/28 00:27:41;;;;;;;;;;;;;;;;;;4894852;28;122379;-80
2023/08/28 00:30:08;;;;;;;;;;;;;;;;;;4876898;28;118556;-80
2023/08/28 00:32:34;;;;;;;;;;;;;;;;;;4895426;28;124512;-80
2023/08/28 00:35:01;;;;;;;;;;;;;;;;;;4902414;28;93105;-82
2023/08/28 00:37:27;;;;;;;;;;;;;;;;;;4898929;28;116807;-81
2023/08/28 00:39:53;;;;;;;;;;;;;;;;;;4918951;28;125613;-80
2023/08/28 00:42:21;;;;;;;;;;;;;;;;;;4898160;28;105918;-80
2023/08/28 00:44:47;;;;;;;;;;;;;;;;;;4914350;28;92353;-80
2023/08/28 00:47:14;;;;;;;;;;;;;;;;;;4897434;28;121821;-81
2023/08/28 00:49:40;;;;;;;;;;;;;;;;;;4898008;28;97962;-81
2023/08/28 00:52:06;;;;;;;;;;;;;;;;;;4885255;28;123086;-80
2023/08/28 00:54:33;;;;;;;;;;;;;;;;;;4879937;28;122747;-80
2023/08/28 00:56:59;;;;;;;;;;;;;;;;;;4895714;28;94642;-81
2023/08/28 00:59:26;;;;;;;;;;;;;;;;;;4896807;28;94829;-81
2023/08/28 01:01:52;;;;;;;;;;;;;;;;;;4920146;28;118456;-80
2023/08/28 01:04:18;;;;;;;;;;;;;;;;;;4913576;28;123617;-80
2023/08/28 01:06:45;;;;;;;;;;;;;;;;;;4916337;28;92360;-80
2023/08/28 01:09:13;;;;;;;;;;;;;;;;;;4898416;28;94225;-80
2023/08/28 01:11:40;;;;;;;;;;;;;;;;;;4892398;28;118824;-81
2023/08/28 01:14:06;;;;;;;;;;;;;;;;;;4918991;28;103019;-81
2023/08/28 01:16:32;;;;;;;;;;;;;;;;;;4892569;28;121354;-81
2023/08/28 01:19:00;;;;;;;;;;;;;;;;;;4897781;28;95697;-81
2023/08/28 01:21:26;;;;;;;;;;;;;;;;;;4886491;28;94354;-81
2023/08/28 01:23:52;;;;;;;;;;;;;;;;;;4901079;28;119014;-80
2023/08/28 01:26:19;;;;;;;;;;;;;;;;;;4900771;28;93005;-80
2023/08/28 01:28:45;;;;;;;;;;;;;;;;;;4887572;28;122873;-80
2023/08/28 01:31:12;;;;;;;;;;;;;;;;;;4872695;28;94650;-80
2023/08/28 01:33:38;;;;;;;;;;;;;;;;;;4899246;28;122842;-80
2023/08/28 01:36:05;;;;;;;;;;;;;;;;;;4898023;28;125056;-80
2023/08/28 01:38:31;;;;;;;;;;;;;;;;;;4898833;28;122727;-82
2023/08/28 01:41:03;;;;;;;;;;;;;;;;;;4899318;28;92680;-81
2023/08/28 01:43:31;;;;;;;;;;;;;;;;;;4886044;28;94555;-80
2023/08/28 01:45:57;;;;;;;;;;;;;;;;;;4910530;28;104482;-80
2023/08/28 01:48:24;;;;;;;;;;;;;;;;;;4912125;28;122075;-80
2023/08/28 01:50:50;;;;;;;;;;;;;;;;;;4893280;28;116358;-80
2023/08/28 01:53:16;;;;;;;;;;;;;;;;;;4896765;28;103734;-80
2023/08/28 01:55:43;;;;;;;;;;;;;;;;;;4870196;28;123048;-80
2023/08/28 01:58:09;;;;;;;;;;;;;;;;;;4871118;28;125064;-81
2023/08/28 02:00:35;;;;;;;;;;;;;;;;;;4900166;28;95307;-80
2023/08/28 02:03:02;;;;;;;;;;;;;;;;;;4899334;28;120671;-79
2023/08/28 02:05:29;;;;;;;;;;;;;;;;;;4903389;28;116526;-80
2023/08/28 02:07:55;;;;;;;;;;;;;;;;;;4919994;28;120739;-80
2023/08/28 02:10:22;;;;;;;;;;;;;;;;;;4914783;28;92674;-80
2023/08/28 02:12:49;;;;;;;;;;;;;;;;;;4893101;28;94880;-80
2023/08/28 02:15:15;;;;;;;;;;;;;;;;;;4896487;28;94523;-80
2023/08/28 02:17:42;;;;;;;;;;;;;;;;;;4891745;28;94810;-80
2023/08/28 02:20:09;;;;;;;;;;;;;;;;;;4890680;28;100828;-80
2023/08/28 02:22:35;;;;;;;;;;;;;;;;;;4898250;28;119852;-81
2023/08/28 02:25:02;;;;;;;;;;;;;;;;;;4876469;28;118877;-80
2023/08/28 02:27:28;;;;;;;;;;;;;;;;;;4902629;28;123314;-80
2023/08/28 02:29:54;;;;;;;;;;;;;;;;;;4910263;28;120245;-80
2023/08/28 02:32:21;;;;;;;;;;;;;;;;;;4889126;28;93992;-80
2023/08/28 02:34:47;;;;;;;;;;;;;;;;;;4917183;28;106149;-80
2023/08/28 02:37:14;;;;;;;;;;;;;;;;;;4892007;28;120829;-80
2023/08/28 02:39:40;;;;;;;;;;;;;;;;;;4914605;28;120591;-80
2023/08/28 02:42:06;;;;;;;;;;;;;;;;;;4895297;28;120589;-81
2023/08/28 02:44:33;;;;;;;;;;;;;;;;;;4899013;28;121505;-80
2023/08/28 02:46:59;;;;;;;;;;;;;;;;;;4893616;28;95060;-81
2023/08/28 02:49:26;;;;;;;;;;;;;;;;;;4894171;28;121121;-81
2023/08/28 02:51:52;;;;;;;;;;;;;;;;;;4897689;28;93816;-81
2023/08/28 02:54:18;;;;;;;;;;;;;;;;;;4898984;28;94421;-80
2023/08/28 02:56:45;;;;;;;;;;;;;;;;;;4917173;28;122728;-80
2023/08/28 02:59:11;;;;;;;;;;;;;;;;;;4895561;28;102124;-80
2023/08/28 03:01:37;;;;;;;;;;;;;;;;;;4894586;28;120715;-81
2023/08/28 03:04:04;;;;;;;;;;;;;;;;;;4902482;28;108430;-80
2023/08/28 03:06:30;;;;;;;;;;;;;;;;;;4916308;28;95294;-81
2023/08/28 03:08:57;;;;;;;;;;;;;;;;;;4898819;28;124674;-80
2023/08/28 03:11:23;;;;;;;;;;;;;;;;;;4901135;28;103303;-80
2023/08/28 03:13:50;;;;;;;;;;;;;;;;;;4874854;28;94114;-80
2023/08/28 03:16:16;;;;;;;;;;;;;;;;;;4902350;28;99502;-81
2023/08/28 03:18:42;;;;;;;;;;;;;;;;;;4890747;28;114506;-80
2023/08/28 03:21:09;;;;;;;;;;;;;;;;;;4899844;28;97702;-80
2023/08/28 03:23:35;;;;;;;;;;;;;;;;;;4885575;28;121185;-81
2023/08/28 03:26:02;;;;;;;;;;;;;;;;;;4899678;28;123643;-81
2023/08/28 03:28:29;;;;;;;;;;;;;;;;;;4892061;28;93198;-81
2023/08/28 03:30:56;;;;;;;;;;;;;;;;;;4918649;28;94806;-81
2023/08/28 03:33:23;;;;;;;;;;;;;;;;;;4894692;28;122350;-80
2023/08/28 03:35:49;;;;;;;;;;;;;;;;;;4901607;28;94227;-81
2023/08/28 03:38:15;;;;;;;;;;;;;;;;;;4895438;28;92808;-81
2023/08/28 03:40:42;;;;;;;;;;;;;;;;;;4901748;28;94377;-81
2023/08/28 03:43:08;;;;;;;;;;;;;;;;;;4899976;28;111516;-81
2023/08/28 03:45:35;;;;;;;;;;;;;;;;;;4899754;28;120961;-81
2023/08/28 03:48:01;;;;;;;;;;;;;;;;;;4889712;28;94077;-81
2023/08/28 03:50:30;;;;;;;;;;;;;;;;;;4887697;28;94686;-81
2023/08/28 03:52:56;;;;;;;;;;;;;;;;;;4897400;28;92275;-80
2023/08/28 03:55:22;;;;;;;;;;;;;;;;;;4904830;28;119273;-80
2023/08/28 03:57:49;;;;;;;;;;;;;;;;;;4883404;28;120858;-80
2023/08/28 04:00:18;;;;;;;;;;;;;;;;;;4894306;28;102259;-80
2023/08/28 04:02:45;;;;;;;;;;;;;;;;;;4894500;28;122282;-80
2023/08/28 04:05:11;;;;;;;;;;;;;;;;;;4889112;28;103437;-80
2023/08/28 04:07:37;;;;;;;;;;;;;;;;;;4895335;28;101199;-81
2023/08/28 04:10:04;;;;;;;;;;;;;;;;;;4894908;28;120386;-81
2023/08/28 04:12:30;;;;;;;;;;;;;;;;;;4887595;28;100095;-80
2023/08/28 04:14:57;;;;;;;;;;;;;;;;;;4896341;28;120052;-80
2023/08/28 04:17:24;;;;;;;;;;;;;;;;;;4887224;28;122452;-80
2023/08/28 04:19:51;;;;;;;;;;;;;;;;;;4891446;28;120761;-80
2023/08/28 04:22:17;;;;;;;;;;;;;;;;;;4888078;28;103853;-80
2023/08/28 04:24:44;;;;;;;;;;;;;;;;;;4887068;28;94479;-80
2023/08/28 04:27:10;;;;;;;;;;;;;;;;;;4893273;28;120387;-80
2023/08/28 04:29:36;;;;;;;;;;;;;;;;;;4892574;28;116457;-81
2023/08/28 04:32:03;;;;;;;;;;;;;;;;;;4885638;28;118186;-80
2023/08/28 04:34:30;;;;;;;;;;;;;;;;;;4894546;28;121594;-81
2023/08/28 04:36:56;;;;;;;;;;;;;;;;;;4901088;28;107190;-81
2023/08/28 04:39:26;;;;;;;;;;;;;;;;;;4889967;28;119992;-80
2023/08/28 04:41:52;;;;;;;;;;;;;;;;;;4894687;28;124499;-81
2023/08/28 04:44:19;;;;;;;;;;;;;;;;;;4893961;28;94941;-80
2023/08/28 04:46:45;;;;;;;;;;;;;;;;;;4883237;28;123287;-81
2023/08/28 04:49:12;;;;;;;;;;;;;;;;;;4884962;28;120373;-81
2023/08/28 04:51:38;;;;;;;;;;;;;;;;;;4905246;28;120951;-81
2023/08/28 04:54:04;;;;;;;;;;;;;;;;;;4881679;28;94931;-81
2023/08/28 04:56:31;;;;;;;;;;;;;;;;;;4895373;28;122468;-81
2023/08/28 04:58:57;;;;;;;;;;;;;;;;;;4904040;28;121019;-81
2023/08/28 05:01:24;;;;;;;;;;;;;;;;;;4891003;28;93713;-81
2023/08/28 05:03:50;;;;;;;;;;;;;;;;;;4894399;28;121183;-81
2023/08/28 05:06:17;;;;;;;;;;;;;;;;;;4896614;28;92450;-80
2023/08/28 05:08:43;;;;;;;;;;;;;;;;;;4896921;28;94465;-81
2023/08/28 05:11:10;;;;;;;;;;;;;;;;;;4896417;28;124841;-81
2023/08/28 05:13:36;;;;;;;;;;;;;;;;;;4897180;28;119862;-81
2023/08/28 05:16:03;;;;;;;;;;;;;;;;;;4907669;28;124812;-81
2023/08/28 05:18:29;;;;;;;;;;;;;;;;;;4905185;28;92697;-80
2023/08/28 05:20:55;;;;;;;;;;;;;;;;;;4918901;28;120333;-81
2023/08/28 05:23:25;;;;;;;;;;;;;;;;;;4914484;28;97964;-81
2023/08/28 05:25:51;;;;;;;;;;;;;;;;;;4896218;28;122783;-81
2023/08/28 05:28:19;;;;;;;;;;;;;;;;;;4872147;28;92402;-81
2023/08/28 05:30:45;;;;;;;;;;;;;;;;;;4873288;28;122470;-81
2023/08/28 05:33:11;;;;;;;;;;;;;;;;;;4893824;28;94831;-81
2023/08/28 05:35:41;;;;;;;;;;;;;;;;;;4899808;28;95642;-80
2023/08/28 05:38:08;;;;;;;;;;;;;;;;;;4893584;28;121196;-80
2023/08/28 05:40:34;;;;;;;;;;;;;;;;;;4914976;28;120041;-80
2023/08/28 05:43:01;;;;;;;;;;;;;;;;;;4896753;28;94392;-80
2023/08/28 05:45:27;;;;;;;;;;;;;;;;;;4894690;28;121440;-80
2023/08/28 05:47:54;;;;;;;;;;;;;;;;;;4893216;28;94751;-80
2023/08/28 05:50:21;;;;;;;;;;;;;;;;;;4869869;28;101727;-80
2023/08/28 05:52:47;;;;;;;;;;;;;;;;;;4912562;28;108617;-80
2023/08/28 05:55:14;;;;;;;;;;;;;;;;;;4886904;28;122402;-80
2023/08/28 05:57:40;;;;;;;;;;;;;;;;;;4912552;28;94466;-80
2023/08/28 06:00:08;;;;;;;;;;;;;;;;;;4897653;28;123481;-80
2023/08/28 06:02:41;;;;;;;;;;;;;;;;;;4896946;28;94477;-80
2023/08/28 06:05:08;;;;;;;;;;;;;;;;;;4898431;28;92529;-80
2023/08/28 06:07:34;;;;;;;;;;;;;;;;;;4896884;28;121630;-80
2023/08/28 06:10:02;;;;;;;;;;;;;;;;;;4896998;28;92449;-80
2023/08/28 06:12:28;;;;;;;;;;;;;;;;;;4912671;28;120892;-80
2023/08/28 06:14:55;;;;;;;;;;;;;;;;;;4894072;28;93266;-81
2023/08/28 06:17:23;;;;;;;;;;;;;;;;;;4890178;28;122360;-81
2023/08/28 06:19:50;;;;;;;;;;;;;;;;;;4907519;28;101927;-81
2023/08/28 06:22:16;;;;;;;;;;;;;;;;;;4896401;28;125015;-81
2023/08/28 06:24:43;;;;;;;;;;;;;;;;;;4896524;28;123923;-81
2023/08/28 06:27:09;;;;;;;;;;;;;;;;;;4893405;28;123449;-81
2023/08/28 06:29:36;;;;;;;;;;;;;;;;;;4897573;28;93389;-81
2023/08/28 06:32:02;;;;;;;;;;;;;;;;;;4895902;28;92485;-81
2023/08/28 06:34:28;;;;;;;;;;;;;;;;;;4869241;28;120930;-81
2023/08/28 06:36:55;;;;;;;;;;;;;;;;;;4890136;28;122988;-81
2023/08/28 06:39:21;;;;;;;;;;;;;;;;;;4912969;28;121851;-81
2023/08/28 06:41:48;;;;;;;;;;;;;;;;;;4914333;28;92483;-81
2023/08/28 06:44:14;;;;;;;;;;;;;;;;;;4896387;28;123710;-81
2023/08/28 06:46:44;;;;;;;;;;;;;;;;;;4901647;28;94914;-81
2023/08/28 06:49:10;;;;;;;;;;;;;;;;;;4889286;28;122418;-81
2023/08/28 06:51:36;;;;;;;;;;;;;;;;;;4896886;28;121841;-81
2023/08/28 06:54:03;;;;;;;;;;;;;;;;;;4909157;28;121747;-81
2023/08/28 06:56:29;;;;;;;;;;;;;;;;;;4912041;28;96652;-81
2023/08/28 06:58:56;;;;;;;;;;;;;;;;;;4911349;28;120609;-81
2023/08/28 07:01:22;;;;;;;;;;;;;;;;;;4895673;28;93645;-81
2023/08/28 07:03:48;;;;;;;;;;;;;;;;;;4882876;28;115984;-81
2023/08/28 07:06:15;;;;;;;;;;;;;;;;;;4899005;28;105478;-81
2023/08/28 07:08:41;;;;;;;;;;;;;;;;;;4897715;28;121356;-80
2023/08/28 07:11:08;;;;;;;;;;;;;;;;;;4910074;28;122021;-81
2023/08/28 07:13:37;;;;;;;;;;;;;;;;;;4895596;28;120912;-81
2023/08/28 07:16:03;;;;;;;;;;;;;;;;;;4891625;28;123255;-81
2023/08/28 07:18:29;;;;;;;;;;;;;;;;;;4913679;28;120629;-81
2023/08/28 07:20:56;;;;;;;;;;;;;;;;;;4912892;28;119824;-81
2023/08/28 07:23:24;;;;;;;;;;;;;;;;;;4895099;28;120941;-81
2023/08/28 07:25:51;;;;;;;;;;;;;;;;;;4895919;28;121528;-81
2023/08/28 07:28:17;;;;;;;;;;;;;;;;;;4896383;28;120730;-81
2023/08/28 07:30:44;;;;;;;;;;;;;;;;;;4900447;28;114289;-81
2023/08/28 07:33:10;;;;;;;;;;;;;;;;;;4890927;28;102739;-81
2023/08/28 07:35:37;;;;;;;;;;;;;;;;;;4896031;28;121213;-82
2023/08/28 07:38:03;;;;;;;;;;;;;;;;;;4892208;28;122966;-81
2023/08/28 07:40:30;;;;;;;;;;;;;;;;;;4911105;28;118633;-81
2023/08/28 07:42:57;;;;;;;;;;;;;;;;;;4897559;28;122356;-81
2023/08/28 07:45:23;;;;;;;;;;;;;;;;;;4901242;28;104455;-82
2023/08/28 07:47:50;;;;;;;;;;;;;;;;;;4918557;28;120797;-81
2023/08/28 07:50:16;;;;;;;;;;;;;;;;;;4917987;28;92591;-83
2023/08/28 07:52:43;;;;;;;;;;;;;;;;;;4929469;28;121712;-82
2023/08/28 07:55:09;;;;;;;;;;;;;;;;;;4921713;28;106611;-82
2023/08/28 07:57:37;;;;;;;;;;;;;;;;;;4909094;28;92790;-82
2023/08/28 08:00:08;;;;;;;;;;;;;;;;;;4912375;28;122512;-82
2023/08/28 08:02:38;;;;;;;;;;;;;;;;;;4892444;28;92958;-82
2023/08/28 08:05:04;;;;;;;;;;;;;;;;;;4912974;28;120697;-82
2023/08/28 08:07:32;;;;;;;;;;;;;;;;;;4914498;28;121359;-82
2023/08/28 08:09:58;;;;;;;;;;;;;;;;;;4917803;28;118371;-81
2023/08/28 08:12:26;;;;;;;;;;;;;;;;;;4916392;28;98190;-82
2023/08/28 08:14:53;;;;;;;;;;;;;;;;;;4901349;28;120073;-82
2023/08/28 08:17:19;;;;;;;;;;;;;;;;;;4919281;28;114322;-82
2023/08/28 08:19:45;;;;;;;;;;;;;;;;;;4910931;28;121255;-82
2023/08/28 08:22:12;;;;;;;;;;;;;;;;;;4889417;28;92678;-82
2023/08/28 08:24:39;;;;;;;;;;;;;;;;;;4900285;28;121915;-82
2023/08/28 08:27:05;;;;;;;;;;;;;;;;;;4908714;28;108206;-82
2023/08/28 08:29:31;;;;;;;;;;;;;;;;;;4893707;28;122583;-81
2023/08/28 08:31:58;;;;;;;;;;;;;;;;;;4900733;28;121732;-82
2023/08/28 08:34:24;;;;;;;;;;;;;;;;;;4904475;28;107383;-82
2023/08/28 08:36:51;;;;;;;;;;;;;;;;;;4889528;28;92614;-82
2023/08/28 08:39:17;;;;;;;;;;;;;;;;;;4907106;28;124752;-82
2023/08/28 08:41:43;;;;;;;;;;;;;;;;;;4912580;28;121123;-83
2023/08/28 08:44:10;;;;;;;;;;;;;;;;;;4894132;28;92661;-82
2023/08/28 08:46:36;;;;;;;;;;;;;;;;;;4886807;28;123650;-82
2023/08/28 08:49:02;;;;;;;;;;;;;;;;;;4916831;28;108004;-81
2023/08/28 08:51:29;;;;;;;;;;;;;;;;;;4900053;28;124146;-82
2023/08/28 08:53:55;;;;;;;;;;;;;;;;;;4899762;28;122416;-82
2023/08/28 08:56:22;;;;;;;;;;;;;;;;;;4919156;28;107799;-82
2023/08/28 08:58:48;;;;;;;;;;;;;;;;;;4915089;28;122621;-82
2023/08/28 09:01:15;;;;;;;;;;;;;;;;;;4916570;28;122222;-82
2023/08/28 09:03:42;;;;;;;;;;;;;;;;;;4893760;28;121564;-82
2023/08/28 09:06:08;;;;;;;;;;;;;;;;;;4899710;28;118991;-82
2023/08/28 09:08:36;;;;;;;;;;;;;;;;;;4917702;28;92851;-82
2023/08/28 09:11:04;;;;;;;;;;;;;;;;;;4887562;28;121845;-82
2023/08/28 09:13:31;;;;;;;;;;;;;;;;;;4899403;28;125077;-81
2023/08/28 09:15:57;;;;;;;;;;;;;;;;;;4911711;28;109794;-82
2023/08/28 09:18:27;;;;;;;;;;;;;;;;;;4920325;28;118337;-82
2023/08/28 09:20:53;;;;;;;;;;;;;;;;;;4900408;28;119228;-82
2023/08/28 09:23:19;;;;;;;;;;;;;;;;;;4928544;28;92512;-82
2023/08/28 09:25:46;;;;;;;;;;;;;;;;;;4908202;28;122390;-82
2023/08/28 09:28:12;;;;;;;;;;;;;;;;;;4919373;28;92379;-82
2023/08/28 09:30:39;;;;;;;;;;;;;;;;;;4918330;28;121908;-82
2023/08/28 09:33:06;;;;;;;;;;;;;;;;;;4898607;28;121700;-82
2023/08/28 09:35:33;;;;;;;;;;;;;;;;;;4918008;28;103151;-82
2023/08/28 09:37:59;;;;;;;;;;;;;;;;;;4890976;28;120900;-82
2023/08/28 09:40:26;;;;;;;;;;;;;;;;;;4899453;28;93449;-83
2023/08/28 09:42:52;;;;;;;;;;;;;;;;;;4899297;28;120859;-82
2023/08/28 09:45:19;;;;;;;;;;;;;;;;;;4881231;28;93967;-82
2023/08/28 09:47:45;;;;;;;;;;;;;;;;;;4895224;28;120598;-82
2023/08/28 09:50:12;;;;;;;;;;;;;;;;;;4913078;28;92491;-82
2023/08/28 09:52:38;;;;;;;;;;;;;;;;;;4891505;28;123905;-83
2023/08/28 09:55:05;;;;;;;;;;;;;;;;;;4886946;28;103180;-82
2023/08/28 09:57:31;;;;;;;;;;;;;;;;;;4915535;28;120205;-82
2023/08/28 09:59:58;;;;;;;;;;;;;;;;;;4915163;28;100720;-82
2023/08/28 10:02:24;;;;;;;;;;;;;;;;;;4888746;28;118463;-82
2023/08/28 10:04:51;;;;;;;;;;;;;;;;;;4898054;28;113037;-82
2023/08/28 10:07:17;;;;;;;;;;;;;;;;;;4900822;28;121145;-82
2023/08/28 10:09:44;;;;;;;;;;;;;;;;;;4919409;28;100325;-82
2023/08/28 10:12:10;;;;;;;;;;;;;;;;;;4913562;28;122809;-82
2023/08/28 10:14:37;;;;;;;;;;;;;;;;;;4878849;28;124868;-82
2023/08/28 10:17:03;;;;;;;;;;;;;;;;;;4915432;28;122164;-82
2023/08/28 10:19:30;;;;;;;;;;;;;;;;;;4910074;28;120631;-82
2023/08/28 10:21:56;;;;;;;;;;;;;;;;;;4914790;28;98776;-82
2023/08/28 10:24:23;;;;;;;;;;;;;;;;;;4889668;28;113389;-82
2023/08/28 10:26:49;;;;;;;;;;;;;;;;;;4912954;28;120213;-82
2023/08/28 10:29:16;;;;;;;;;;;;;;;;;;4911096;28;94895;-82
2023/08/28 10:31:42;;;;;;;;;;;;;;;;;;4907481;28;92482;-82
2023/08/28 10:34:09;;;;;;;;;;;;;;;;;;4916607;28;93686;-82
2023/08/28 10:36:35;;;;;;;;;;;;;;;;;;4901661;28;112669;-82
2023/08/28 10:39:22;;;;;;;;;;;;;;;;;;4916002;28;92274;-82
2023/08/28 10:41:48;;;;;;;;;;;;;;;;;;4913913;28;121052;-82
2023/08/28 10:44:14;;;;;;;;;;;;;;;;;;4896496;28;92213;-83
2023/08/28 10:46:41;;;;;;;;;;;;;;;;;;4914520;28;121540;-82
2023/08/28 10:49:07;;;;;;;;;;;;;;;;;;4890520;28;120764;-82
2023/08/28 10:51:36;;;;;;;;;;;;;;;;;;4897105;28;115598;-83
2023/08/28 10:54:02;;;;;;;;;;;;;;;;;;4894864;28;105843;-82
2023/08/28 10:56:29;;;;;;;;;;;;;;;;;;4897401;28;121809;-82
2023/08/28 10:58:55;;;;;;;;;;;;;;;;;;4899987;28;122612;-82
2023/08/28 11:01:22;;;;;;;;;;;;;;;;;;4901018;28;95184;-82
2023/08/28 11:03:48;;;;;;;;;;;;;;;;;;4910452;28;122131;-82
2023/08/28 11:06:14;;;;;;;;;;;;;;;;;;4925381;28;116001;-82
2023/08/28 11:08:41;;;;;;;;;;;;;;;;;;4905732;28;121794;-82
2023/08/28 11:11:07;;;;;;;;;;;;;;;;;;4885935;28;95404;-82
2023/08/28 11:13:34;;;;;;;;;;;;;;;;;;4908862;28;122365;-83
2023/08/28 11:16:00;;;;;;;;;;;;;;;;;;4911259;28;121181;-82
2023/08/28 11:18:27;;;;;;;;;;;;;;;;;;4915894;28;99611;-82
2023/08/28 11:20:53;;;;;;;;;;;;;;;;;;4896639;28;94857;-82
2023/08/28 11:23:20;;;;;;;;;;;;;;;;;;4886663;28;103315;-83
2023/08/28 11:25:46;;;;;;;;;;;;;;;;;;4878067;28;95232;-82
2023/08/28 11:28:12;;;;;;;;;;;;;;;;;;4902923;28;122573;-83
2023/08/28 11:30:39;;;;;;;;;;;;;;;;;;4900860;28;113374;-82
2023/08/28 11:33:05;;;;;;;;;;;;;;;;;;4916837;28;121201;-83
2023/08/28 11:35:32;;;;;;;;;;;;;;;;;;4903571;28;121171;-82
2023/08/28 11:37:58;;;;;;;;;;;;;;;;;;4926949;28;92439;-82
2023/08/28 11:40:25;;;;;;;;;;;;;;;;;;4913878;28;121415;-82
2023/08/28 11:42:51;;;;;;;;;;;;;;;;;;4915723;28;123134;-82
2023/08/28 11:45:18;;;;;;;;;;;;;;;;;;4915394;28;108404;-82
2023/08/28 11:47:44;;;;;;;;;;;;;;;;;;4919473;28;120158;-82
2023/08/28 11:50:11;;;;;;;;;;;;;;;;;;4920089;28;121996;-83
2023/08/28 11:52:37;;;;;;;;;;;;;;;;;;4919488;28;104446;-83
2023/08/28 11:55:04;;;;;;;;;;;;;;;;;;4912073;28;121914;-82
2023/08/28 11:57:30;;;;;;;;;;;;;;;;;;4914781;28;116420;-83
2023/08/28 11:59:57;;;;;;;;;;;;;;;;;;4914880;28;122015;-83
2023/08/28 12:02:23;;;;;;;;;;;;;;;;;;4890238;28;122109;-82
2023/08/28 12:04:50;;;;;;;;;;;;;;;;;;4903740;28;102443;-84
2023/08/28 12:07:16;;;;;;;;;;;;;;;;;;4897068;28;104730;-83
2023/08/28 12:09:43;;;;;;;;;;;;;;;;;;4891759;28;120717;-82
2023/08/28 12:12:09;;;;;;;;;;;;;;;;;;4907077;28;122603;-83
2023/08/28 12:14:35;;;;;;;;;;;;;;;;;;4918936;28;93658;-83
2023/08/28 12:17:02;;;;;;;;;;;;;;;;;;4896200;28;121361;-82
2023/08/28 12:19:28;;;;;;;;;;;;;;;;;;4911708;28;122338;-83
2023/08/28 12:21:55;;;;;;;;;;;;;;;;;;4898063;28;120746;-82
2023/08/28 12:24:21;;;;;;;;;;;;;;;;;;4913272;28;104239;-82
2023/08/28 12:26:47;;;;;;;;;;;;;;;;;;4903786;28;122262;-82
2023/08/28 12:29:14;;;;;;;;;;;;;;;;;;4911592;28;94866;-82
2023/08/28 12:31:40;;;;;;;;;;;;;;;;;;4907423;28;121843;-82
2023/08/28 12:34:07;;;;;;;;;;;;;;;;;;4902937;28;121085;-82
2023/08/28 12:36:34;;;;;;;;;;;;;;;;;;4902311;28;92432;-82
2023/08/28 12:39:03;;;;;;;;;;;;;;;;;;4897068;28;121104;-82
2023/08/28 12:41:29;;;;;;;;;;;;;;;;;;4914282;28;120685;-83
2023/08/28 12:43:56;;;;;;;;;;;;;;;;;;4919278;28;106180;-82
2023/08/28 12:46:22;;;;;;;;;;;;;;;;;;4918723;28;106372;-82
2023/08/28 12:48:49;;;;;;;;;;;;;;;;;;4900975;28;107373;-82
2023/08/28 12:51:16;;;;;;;;;;;;;;;;;;4898450;28;121565;-82
2023/08/28 12:53:43;;;;;;;;;;;;;;;;;;4888589;28;94695;-82
2023/08/28 12:56:10;;;;;;;;;;;;;;;;;;4895247;28;121440;-83
2023/08/28 12:58:36;;;;;;;;;;;;;;;;;;4913565;28;93123;-82
2023/08/28 13:01:04;;;;;;;;;;;;;;;;;;4877775;28;121584;-82
2023/08/28 13:03:30;;;;;;;;;;;;;;;;;;4906849;28;93128;-82
2023/08/28 13:05:57;;;;;;;;;;;;;;;;;;4897253;28;122536;-80
2023/08/28 13:08:23;;;;;;;;;;;;;;;;;;4896618;28;121633;-80
2023/08/28 13:10:50;;;;;;;;;;;;;;;;;;4915307;28;114841;-80
2023/08/28 13:13:16;;;;;;;;;;;;;;;;;;4907504;28;122327;-81
2023/08/28 13:15:42;;;;;;;;;;;;;;;;;;4895101;28;119909;-81
2023/08/28 13:18:09;;;;;;;;;;;;;;;;;;4900381;28;111821;-81
2023/08/28 13:20:35;;;;;;;;;;;;;;;;;;4917264;28;123030;-80
2023/08/28 13:23:03;;;;;;;;;;;;;;;;;;4901160;28;110001;-80
2023/08/28 13:25:30;;;;;;;;;;;;;;;;;;4898383;28;120187;-80
2023/08/28 13:27:56;;;;;;;;;;;;;;;;;;4903449;28;95796;-80
2023/08/28 13:30:23;;;;;;;;;;;;;;;;;;4915588;28;121403;-80
2023/08/28 13:32:50;;;;;;;;;;;;;;;;;;4900130;28;92594;-80
2023/08/28 13:35:17;;;;;;;;;;;;;;;;;;4903596;28;121938;-81
2023/08/28 13:37:43;;;;;;;;;;;;;;;;;;4897632;28;96311;-80
2023/08/28 13:40:10;;;;;;;;;;;;;;;;;;4880933;28;122153;-80
2023/08/28 13:42:36;;;;;;;;;;;;;;;;;;4892594;28;127394;-79
2023/08/28 13:45:03;;;;;;;;;;;;;;;;;;4914746;28;122571;-80
2023/08/28 13:47:29;;;;;;;;;;;;;;;;;;4897681;28;120093;-79
2023/08/28 13:49:57;;;;;;;;;;;;;;;;;;4912356;28;97613;-80
2023/08/28 13:52:24;;;;;;;;;;;;;;;;;;4914749;28;123644;-79
2023/08/28 13:54:50;;;;;;;;;;;;;;;;;;4915276;28;110675;-80
2023/08/28 13:57:17;;;;;;;;;;;;;;;;;;4914367;28;122612;-80
2023/08/28 13:59:43;;;;;;;;;;;;;;;;;;4900481;28;99638;-80
2023/08/28 14:02:09;;;;;;;;;;;;;;;;;;4912637;28;107153;-79
2023/08/28 14:04:36;;;;;;;;;;;;;;;;;;4916096;28;124011;-80
2023/08/28 14:07:03;;;;;;;;;;;;;;;;;;4915931;28;121736;-80
2023/08/28 14:09:30;;;;;;;;;;;;;;;;;;4916474;28;93267;-80
2023/08/28 14:11:56;;;;;;;;;;;;;;;;;;4897430;28;111720;-79
2023/08/28 14:14:23;;;;;;;;;;;;;;;;;;4912192;28;104963;-80
2023/08/28 14:16:49;;;;;;;;;;;;;;;;;;4911289;28;92514;-80
2023/08/28 14:19:16;;;;;;;;;;;;;;;;;;4922946;28;115021;-80
2023/08/28 14:21:42;;;;;;;;;;;;;;;;;;4917246;28;100003;-80
2023/08/28 14:24:09;;;;;;;;;;;;;;;;;;4912992;28;120906;-87
2023/08/28 14:26:35;;;;;;;;;;;;;;;;;;4874928;28;94062;-86
2023/08/28 14:29:02;;;;;;;;;;;;;;;;;;4917436;28;92029;-87
2023/08/28 14:31:28;;;;;;;;;;;;;;;;;;4878720;28;116451;-86
2023/08/28 14:33:54;;;;;;;;;;;;;;;;;;4912050;28;111969;-87
2023/08/28 14:36:21;;;;;;;;;;;;;;;;;;4894366;28;122618;-86
2023/08/28 14:38:48;;;;;;;;;;;;;;;;;;4889417;28;108309;-86
2023/08/28 14:41:14;;;;;;;;;;;;;;;;;;4897626;28;94493;-87
2023/08/28 14:43:40;;;;;;;;;;;;;;;;;;4895873;28;120972;-86
2023/08/28 14:46:07;;;;;;;;;;;;;;;;;;4894203;28;120974;-86
2023/08/28 14:48:33;;;;;;;;;;;;;;;;;;4894084;28;106476;-86
2023/08/28 14:51:00;;;;;;;;;;;;;;;;;;4894978;28;121144;-86
2023/08/28 14:53:26;;;;;;;;;;;;;;;;;;4890876;28;121598;-86
2023/08/28 14:55:53;;;;;;;;;;;;;;;;;;4906256;28;121591;-87
2023/08/28 14:58:19;;;;;;;;;;;;;;;;;;4913627;28;121097;-86
2023/08/28 15:00:46;;;;;;;;;;;;;;;;;;4893938;28;101698;-87
2023/08/28 15:03:12;;;;;;;;;;;;;;;;;;4905541;28;94600;-85
2023/08/28 15:05:39;;;;;;;;;;;;;;;;;;4918043;28;120469;-85
2023/08/28 15:08:05;;;;;;;;;;;;;;;;;;4904310;28;119309;-86
2023/08/28 15:10:42;;;;;;;;;;;;;;;;;;4885419;28;118662;-86
2023/08/28 15:13:08;;;;;;;;;;;;;;;;;;4875224;28;122257;-87
2023/08/28 15:15:36;;;;;;;;;;;;;;;;;;4918610;28;96543;-86
2023/08/28 15:18:03;;;;;;;;;;;;;;;;;;4916652;28;120973;-86
2023/08/28 15:20:29;;;;;;;;;;;;;;;;;;4890054;28;122223;-86
2023/08/28 15:22:56;;;;;;;;;;;;;;;;;;4914884;28;107262;-87
2023/08/28 15:25:22;;;;;;;;;;;;;;;;;;4901109;28;118594;-87
2023/08/28 15:27:54;;;;;;;;;;;;;;;;;;4889115;28;109459;-87
2023/08/28 15:30:22;;;;;;;;;;;;;;;;;;4886115;28;124327;-87
2023/08/28 15:32:49;;;;;;;;;;;;;;;;;;4892083;28;92394;-87
2023/08/28 15:35:16;;;;;;;;;;;;;;;;;;4915882;28;109024;-86
2023/08/28 15:37:42;;;;;;;;;;;;;;;;;;4900668;28;92435;-87
2023/08/28 15:40:09;;;;;;;;;;;;;;;;;;4913127;28;121678;-86
2023/08/28 15:42:39;;;;;;;;;;;;;;;;;;4887676;28;122077;-86
2023/08/28 15:45:06;;;;;;;;;;;;;;;;;;4915293;28;95561;-85
2023/08/28 15:47:33;;;;;;;;;;;;;;;;;;4898932;28;111034;-86
2023/08/28 15:50:03;;;;;;;;;;;;;;;;;;4913385;28;105441;-86
2023/08/28 15:52:32;;;;;;;;;;;;;;;;;;4897586;28;119830;-86
2023/08/28 15:54:59;;;;;;;;;;;;;;;;;;4898922;28;98033;-86
2023/08/28 15:57:26;;;;;;;;;;;;;;;;;;4895180;28;123056;-86
2023/08/28 15:59:55;;;;;;;;;;;;;;;;;;4916788;28;92493;-86
2023/08/28 16:02:22;;;;;;;;;;;;;;;;;;4902333;28;112356;-87
2023/08/28 16:04:48;;;;;;;;;;;;;;;;;;4916467;28;120541;-85
2023/08/28 16:07:15;;;;;;;;;;;;;;;;;;4897641;28;111645;-85
2023/08/28 16:09:41;;;;;;;;;;;;;;;;;;4899975;28;94900;-85
2023/08/28 16:12:08;;;;;;;;;;;;;;;;;;4910295;28;122821;-86
2023/08/28 16:14:34;;;;;;;;;;;;;;;;;;4917001;28;112924;-86
2023/08/28 16:17:03;;;;;;;;;;;;;;;;;;4889126;28;95539;-86
2023/08/28 16:19:29;;;;;;;;;;;;;;;;;;4914260;28;122000;-85
2023/08/28 16:21:56;;;;;;;;;;;;;;;;;;4912450;28;92697;-86
2023/08/28 16:24:22;;;;;;;;;;;;;;;;;;4900709;28;107133;-85
2023/08/28 16:26:48;;;;;;;;;;;;;;;;;;4891346;28;99329;-86
2023/08/28 16:29:15;;;;;;;;;;;;;;;;;;4882525;28;121426;-86